createdAt,value
2023-05-17T05:02:36.402Z,2.90
2023-05-17T05:07:39.896Z,2.88
2023-05-17T05:12:43.309Z,3.45
2023-05-17T05:17:45.072Z,3.43
2023-05-17T05:22:48.698Z,4.25
2023-05-17T05:27:52.309Z,3.22
2023-05-17T05:32:54.675Z,2.87
2023-05-17T05:37:57.436Z,3.67
2023-05-17T05:42:59.538Z,3.30
2023-05-17T05:48:01.310Z,3.83
2023-05-17T05:53:17.265Z,3.53
2023-05-17T05:58:25.203Z,3.95
2023-05-17T06:03:27.220Z,5.47
2023-05-17T06:08:28.784Z,4.28
2023-05-17T06:13:30.561Z,4.38
2023-05-17T06:18:33.098Z,3.67
2023-05-17T06:23:34.641Z,4.30
2023-05-17T06:28:37.100Z,4.72
2023-05-17T06:33:38.617Z,6.65
2023-05-17T06:38:40.297Z,4.45
2023-05-17T06:43:42.158Z,4.40
2023-05-17T06:48:43.882Z,4.38
2023-05-17T06:53:45.693Z,4.60
2023-05-17T06:58:47.369Z,4.50
2023-05-17T07:03:49.214Z,4.30
2023-05-17T07:08:51.130Z,4.50
2023-05-17T07:13:54.351Z,4.60
2023-05-17T07:18:57.442Z,5.15
2023-05-17T07:23:59.599Z,4.50
2023-05-17T07:29:01.203Z,4.40
2023-05-17T07:34:04.300Z,4.68
2023-05-17T07:39:05.876Z,3.88
2023-05-17T07:44:07.386Z,4.00
2023-05-17T07:49:09.002Z,4.40
2023-05-17T07:54:21.921Z,3.92
2023-05-17T08:04:25.456Z,3.58
2023-05-17T08:09:26.938Z,3.17
2023-05-17T08:14:28.468Z,4.30
2023-05-17T08:19:30.116Z,2.88
2023-05-17T08:24:31.808Z,3.17
2023-05-17T08:29:33.336Z,3.65
2023-05-17T08:34:34.890Z,3.22
2023-05-17T08:39:36.399Z,3.67
2023-05-17T08:44:38.859Z,3.72
2023-05-17T08:49:40.642Z,3.97
2023-05-17T08:54:42.456Z,3.60
2023-05-17T08:59:45.841Z,3.37
2023-05-17T09:04:50.210Z,4.43
2023-05-17T09:09:53.582Z,4.32
2023-05-17T09:15:12.776Z,3.25
2023-05-17T09:20:24.156Z,3.28
2023-05-17T09:25:25.884Z,4.32
2023-05-17T09:30:32.012Z,3.45
2023-05-17T09:35:34.891Z,3.30
2023-05-17T09:45:41.169Z,3.53
2023-05-17T09:50:47.654Z,3.10
2023-05-17T09:55:49.287Z,3.50
2023-05-17T10:01:01.691Z,3.28
2023-05-17T10:06:06.515Z,3.25
2023-05-17T10:11:09.547Z,3.45
2023-05-17T10:16:12.099Z,3.50
2023-05-17T10:21:14.480Z,2.80
2023-05-17T10:26:16.211Z,2.65
2023-05-17T10:31:17.864Z,2.73
2023-05-17T10:36:19.903Z,2.15
2023-05-17T10:41:24.262Z,2.75
2023-05-17T10:46:25.827Z,2.40
2023-05-17T10:51:34.085Z,2.47
2023-05-17T10:56:38.752Z,2.60
2023-05-17T11:02:06.477Z,3.05
2023-05-17T11:07:17.293Z,2.28
2023-05-17T11:12:31.268Z,2.40
2023-05-17T11:17:50.981Z,2.92
2023-05-17T11:22:58.865Z,2.80
2023-05-17T11:28:00.733Z,2.05
2023-05-17T11:33:07.227Z,2.10
2023-05-17T11:38:18.898Z,2.42
2023-05-17T11:43:25.476Z,2.28
2023-05-17T11:48:27.558Z,1.92
2023-05-17T11:53:30.936Z,2.03
2023-05-17T11:58:33.136Z,2.15
2023-05-17T12:03:35.288Z,1.92
2023-05-17T12:08:38.833Z,1.90
2023-05-17T12:13:43.981Z,2.47
2023-05-17T12:18:49.622Z,2.30
2023-05-17T12:23:52.411Z,2.03
2023-05-17T12:29:01.068Z,3.67
2023-05-17T12:34:06.023Z,2.08
2023-05-17T12:39:09.933Z,2.03
2023-05-17T12:44:15.926Z,2.05
2023-05-17T12:49:18.617Z,2.13
2023-05-17T12:54:28.344Z,2.10
2023-05-17T12:59:29.910Z,2.25
2023-05-17T13:04:33.628Z,2.20
2023-05-17T13:09:47.248Z,2.17
2023-05-17T13:14:54.558Z,2.17
2023-05-17T13:19:57.993Z,2.70
2023-05-17T13:24:59.938Z,2.20
2023-05-17T13:30:01.580Z,2.77
2023-05-17T13:35:03.384Z,2.80
2023-05-17T13:40:05.583Z,2.35
2023-05-17T13:45:09.195Z,1.98
2023-05-17T13:50:12.032Z,1.90
2023-05-17T13:55:13.538Z,2.10
2023-05-17T14:00:16.128Z,2.50
2023-05-17T14:05:17.978Z,1.92
2023-05-17T14:10:19.547Z,2.15
2023-05-17T14:15:21.823Z,2.13
2023-05-17T14:20:23.415Z,1.98
2023-05-17T14:25:25.125Z,2.10
2023-05-17T14:30:26.751Z,2.30
2023-05-17T14:35:30.215Z,2.37
2023-05-17T14:40:32.643Z,2.47
2023-05-17T14:50:35.794Z,2.30
2023-05-17T14:55:37.852Z,2.43
2023-05-17T15:00:41.533Z,2.17
2023-05-17T15:05:43.202Z,2.35
2023-05-17T15:10:44.747Z,2.00
2023-05-17T15:15:49.450Z,2.10
2023-05-17T15:20:51.040Z,1.80
2023-05-17T15:25:53.188Z,2.20
2023-05-17T15:31:02.797Z,1.83
2023-05-17T15:36:05.792Z,2.03
2023-05-17T15:41:14.207Z,2.10
2023-05-17T15:46:15.856Z,1.77
2023-05-17T15:51:17.656Z,2.63
2023-05-17T15:56:21.036Z,2.50
2023-05-17T16:01:22.576Z,2.13
2023-05-17T16:06:24.081Z,1.90
2023-05-17T16:11:25.584Z,1.93
2023-05-17T16:16:27.112Z,2.47
2023-05-17T16:21:28.765Z,2.40
2023-05-17T16:26:30.293Z,2.20
2023-05-17T16:31:31.901Z,1.73
2023-05-17T16:36:33.892Z,2.10
2023-05-17T16:41:35.778Z,2.00
2023-05-17T16:46:37.840Z,2.17
2023-05-17T16:56:41.073Z,2.45
2023-05-17T17:01:42.637Z,2.00
2023-05-17T17:06:44.394Z,2.05
2023-05-17T17:11:46.365Z,2.50
2023-05-17T17:16:48.168Z,1.95
2023-05-17T17:21:50.515Z,2.17
2023-05-17T17:26:51.985Z,1.33
2023-05-17T17:31:55.105Z,2.10
2023-05-17T17:36:57.822Z,2.00
2023-05-17T17:41:59.347Z,3.15
2023-05-17T17:47:01.002Z,1.70
2023-05-17T17:52:02.921Z,1.77
2023-05-17T17:57:04.609Z,2.17
2023-05-17T18:02:06.664Z,2.05
2023-05-17T18:07:08.278Z,2.35
2023-05-17T18:12:09.938Z,1.87
2023-05-17T18:17:11.472Z,1.83
2023-05-17T18:22:15.942Z,2.07
2023-05-17T18:27:17.429Z,1.75
2023-05-17T18:32:19.025Z,1.90
2023-05-17T18:37:21.184Z,1.90
2023-05-17T18:42:24.903Z,1.83
2023-05-17T18:47:27.939Z,2.42
2023-05-17T18:52:29.574Z,2.50
2023-05-17T18:57:31.012Z,1.70
2023-05-17T19:02:32.545Z,2.75
2023-05-17T19:07:34.269Z,1.90
2023-05-17T19:12:35.981Z,2.00
2023-05-17T19:17:37.698Z,2.50
2023-05-17T19:22:39.259Z,2.47
2023-05-17T19:27:42.176Z,2.13
2023-05-17T19:32:43.673Z,2.10
2023-05-17T19:37:45.221Z,2.22
2023-05-17T19:42:46.757Z,2.00
2023-05-17T19:47:48.374Z,2.10
2023-05-17T19:52:49.917Z,2.33
2023-05-17T19:57:51.408Z,2.13
2023-05-17T20:02:52.993Z,2.35
2023-05-17T20:07:55.281Z,2.10
2023-05-17T20:12:57.763Z,2.40
2023-05-17T20:17:59.331Z,2.25
2023-05-17T20:23:00.957Z,1.67
2023-05-17T20:28:02.441Z,2.05
2023-05-17T20:33:04.132Z,2.22
2023-05-17T20:38:05.758Z,2.43
2023-05-17T20:43:08.118Z,2.00
2023-05-17T20:48:09.676Z,2.10
2023-05-17T20:53:11.245Z,2.10
2023-05-17T20:58:12.806Z,2.35
2023-05-17T21:03:14.491Z,1.70
2023-05-17T21:08:16.070Z,2.40
2023-05-17T21:13:17.850Z,2.13
2023-05-17T21:18:19.395Z,1.63
2023-05-17T21:23:21.000Z,2.70
2023-05-17T21:28:22.514Z,2.20
2023-05-17T21:33:23.993Z,2.00
2023-05-17T21:38:25.482Z,2.05
2023-05-17T21:43:27.035Z,2.10
2023-05-17T21:48:28.492Z,2.40
2023-05-17T21:53:29.952Z,1.75
2023-05-17T21:58:31.941Z,1.80
